Oriana — ZCDU9 — position and weather

sailwx.info

Track history (hours):
 
Tides and Currents Weather Stations Pressure Air Temp Water Temp Dewpoint Dewpoint Depression Visibility Wind Speed Wind Dir Waves Ship Positions

Oriana (Bermuda)

Last reported at 2016-Aug-29 17:21 UTC. Time now 2016-Aug-29 19:46 UTC.
Position N 58°35' W 005°10'.

Length 261 m; beam 32.2 m; draft 8.2 m.

Type: Ship. MMSI: 310529000.

Date/timePositionNaut miles runAvg speedWind from/ knotsBaromVisibWave heightAir tempDewpointWater temp
2016-Aug-29 17:21N 58°35' W 005°10'6 7.6
2016-Aug-29 16:32N 58°39' W 005°00'8 8.5
2016-Aug-29 15:33N 58°40' W 004°44'1110.3
2016-Aug-29 14:27N 58°37' W 004°24'9 9.7
2016-Aug-29 13:33N 58°40' W 004°08'10 9.9
2016-Aug-29 12:33N 58°44' W 003°50'1111.1
2016-Aug-29 11:33N 58°44' W 003°28'1211.8
2016-Aug-29 10:33N 58°43' W 003°06'1110.5
2016-Aug-29 09:33N 58°42' W 002°46'8 8.5
2016-Aug-29 08:33N 58°47' W 002°32'1110.5
2016-Aug-29 07:32N 58°56' W 002°23'1212.0
2016-Aug-29 06:33N 58°60' W 002°44'7 7.0
2016-Aug-29 05:31N 58°60' W 002°58'0 0.0
2016-Aug-29 04:31N 59°00' W 002°58'0 0.0
2016-Aug-29 03:31N 59°00' W 002°58'0 0.0
2016-Aug-29 02:31N 59°00' W 002°58'0 0.0
2016-Aug-29 01:31N 59°00' W 002°58'0 0.0
2016-Aug-29 00:31N 58°60' W 002°58'0 0.0
2016-Aug-28 23:31N 59°00' W 002°58'0 0.0
2016-Aug-28 22:31N 59°00' W 002°58'0 0.0
2016-Aug-28 21:31N 59°00' W 002°58'0 0.0
2016-Aug-28 20:31N 59°00' W 002°58'0 0.0
2016-Aug-28 19:31N 58°60' W 002°58'0 0.0
2016-Aug-28 18:31N 59°00' W 002°58'0 0.0
2016-Aug-28 17:31N 59°00' W 002°58'0 0.0
2016-Aug-28 16:31N 59°00' W 002°58'0 0.0
2016-Aug-28 15:31N 59°00' W 002°58'0 0.0
2016-Aug-28 14:31N 59°00' W 002°58'0 0.0
2016-Aug-28 13:31N 59°00' W 002°58'0 0.0
2016-Aug-28 12:31N 59°00' W 002°58'0 0.0
2016-Aug-28 11:31N 59°00' W 002°58'0 0.0
2016-Aug-28 10:31N 59°00' W 002°58'0 0.0
2016-Aug-28 09:31N 59°00' W 002°58'0 0.0
2016-Aug-28 08:31N 59°00' W 002°58'0 0.0
2016-Aug-28 07:31N 59°00' W 002°58'0 0.0
2016-Aug-28 06:33N 59°00' W 002°58'7 6.7
2016-Aug-28 05:33N 58°60' W 002°45'1211.7
2016-Aug-28 04:33N 58°48' W 002°41'1716.7
2016-Aug-28 03:32N 58°44' W 003°13'1717.1
2016-Aug-28 02:33N 58°44' W 003°45'1716.7
2016-Aug-28 01:33N 58°44' W 004°17'1312.8
2016-Aug-28 00:33N 58°44' W 004°42'1010.5
2016-Aug-27 23:33N 58°44' W 005°02'1010.4
2016-Aug-27 22:33N 58°44' W 005°22'115 5.9
2016-Aug-27 03:00N 57°00' W 006°54'6414.3 180 / 31017.110.8 14.911.814.0
2016-Aug-26 22:32N 55°57' W 007°12'2020.1
2016-Aug-26 21:33N 55°43' W 006°48'2121.3
2016-Aug-26 20:33N 55°29' W 006°20'2020.3
2016-Aug-26 19:33N 55°16' W 005°53'2120.6
2016-Aug-26 18:33N 54°58' W 005°36'1716.4
2016-Aug-26 17:32N 54°42' W 005°46'6 0.5
2016-Aug-26 06:22N 54°38' W 005°53'16 9.0
2016-Aug-26 04:34N 54°44' W 005°27'9 9.2
2016-Aug-26 03:33N 54°37' W 005°17'1425.5
2016-Aug-26 03:00N 54°24' W 005°06'510.9 240 / 131013.110.8 0.514.812.014.0
2016-Aug-26 02:33N 54°28' W 005°11'1010.1
2016-Aug-26 01:33N 54°18' W 005°11'1010.1
2016-Aug-26 00:33N 54°08' W 005°16'3210.7
2016-Aug-25 21:33N 53°39' W 005°42'1310.6
2016-Aug-25 20:19N 53°28' W 005°53'59 3.1
2016-Aug-25 01:09N 52°29' W 005°48'1118.4
2016-Aug-25 00:32N 52°18' W 005°54'1717.4
2016-Aug-24 23:33N 52°03' W 006°08'1818.0
2016-Aug-24 22:33N 51°58' W 006°36'1818.2
2016-Aug-24 21:33N 51°53' W 007°04'1817.9
2016-Aug-24 20:33N 51°49' W 007°32'1817.8
2016-Aug-24 19:33N 51°45' W 008°00'1111.2
2016-Aug-24 18:33N 51°50' W 008°16'2 2.4
2016-Aug-24 17:34N 51°50' W 008°20'0 0.0
2016-Aug-24 16:32N 51°50' W 008°20'0 0.0
2016-Aug-24 15:32N 51°50' W 008°20'0 0.0
2016-Aug-24 14:32N 51°50' W 008°20'0 0.0
2016-Aug-24 13:33N 51°50' W 008°20'0 0.0
2016-Aug-24 12:31N 51°50' W 008°20'0 0.0
2016-Aug-24 11:31N 51°50' W 008°20'0 0.0
2016-Aug-24 10:31N 51°50' W 008°20'0 0.0
2016-Aug-24 09:31N 51°50' W 008°20'0 0.0
2016-Aug-24 08:31N 51°50' W 008°20'0 0.0
2016-Aug-24 07:31N 51°50' W 008°20'0 0.0
2016-Aug-24 06:33N 51°50' W 008°20'11 5.6
2016-Aug-24 04:34N 51°39' W 008°14'1110.8
2016-Aug-24 03:33N 51°33' W 008°00'1010.5
2016-Aug-24 02:33N 51°31' W 007°44'7 6.9
2016-Aug-24 01:33N 51°27' W 007°36'1010.4
2016-Aug-24 00:33N 51°25' W 007°19'65 8.8
2016-Aug-23 17:08N 50°34' W 006°15'7 9.7
2016-Aug-23 16:25N 50°29' W 006°07'910.1
2016-Aug-23 15:32N 50°23' W 005°56'1222.3
2016-Aug-23 15:00N 50°12' W 005°48'3 7.5 350 / 71019.710.8 17.015.314.0
2016-Aug-23 14:33N 50°13' W 005°53'10 9.9
2016-Aug-23 13:32N 50°03' W 005°53'8 7.8
2016-Aug-23 12:33N 49°59' W 005°43'23 9.1
2016-Aug-23 10:04N 49°55' W 005°09'4 8.8
2016-Aug-23 09:33N 49°57' W 005°03'9 9.3
2016-Aug-23 08:33N 50°05' W 004°55'10 9.7
2016-Aug-23 07:33N 50°12' W 004°44'8 8.2
2016-Aug-23 06:33N 50°13' W 004°31'1110.6
2016-Aug-23 05:33N 50°04' W 004°22'1110.6
2016-Aug-23 04:33N 49°54' W 004°16'1010.3
2016-Aug-23 03:33N 49°45' W 004°09'1110.4
2016-Aug-23 02:32N 49°37' W 003°57'1010.5
2016-Aug-23 01:33N 49°33' W 003°43'9 8.6
2016-Aug-23 00:33N 49°28' W 003°54'1010.2
2016-Aug-22 23:33N 49°18' W 003°47'9 8.7
2016-Aug-22 22:33N 49°17' W 003°34'10 9.8
2016-Aug-22 21:33N 49°18' W 003°20'9 9.0
2016-Aug-22 20:33N 49°20' W 003°06'12 8.5
2016-Aug-22 19:08N 49°21' W 002°47'4 7.6
2016-Aug-22 18:33N 49°21' W 002°41'8 8.4
2016-Aug-22 17:33N 49°26' W 002°30'2 1.9
2016-Aug-22 16:33N 49°28' W 002°30'0 0.0
2016-Aug-22 15:17N 49°28' W 002°30'0 0.0
2016-Aug-22 14:29N 49°28' W 002°30'0 0.0
2016-Aug-22 13:26N 49°28' W 002°30'0 0.0
2016-Aug-22 08:22N 49°28' W 002°30'0 0.0
2016-Aug-22 07:29N 49°28' W 002°30'0 0.1
2016-Aug-22 06:33N 49°28' W 002°30'4 4.3
2016-Aug-22 05:33N 49°23' W 002°30'1111.2
2016-Aug-22 04:33N 49°25' W 002°47'1615.9
2016-Aug-22 03:32N 49°40' W 002°56'1615.9
2016-Aug-22 02:33N 49°55' W 003°02'1313.2
2016-Aug-22 01:34N 50°01' W 002°44'1717.2
2016-Aug-22 00:33N 50°07' W 002°18'1615.8
2016-Aug-21 23:33N 50°15' W 001°57'9 9.0
2016-Aug-21 22:33N 50°19' W 001°44'7 7.1
2016-Aug-21 21:33N 50°22' W 001°35'10 7.6
2016-Aug-21 20:11N 50°27' W 001°20'5 8.6
2016-Aug-21 19:33N 50°30' W 001°13'1010.0
2016-Aug-21 18:33N 50°35' W 000°59'10 9.7
2016-Aug-21 17:33N 50°44' W 001°04'1212.1
2016-Aug-21 16:33N 50°51' W 001°20'5 5.2
2016-Aug-21 15:33N 50°54' W 001°26'0 0.0
2016-Aug-21 14:33N 50°54' W 001°26'0 0.0
2016-Aug-21 13:33N 50°54' W 001°26'0 0.0
2016-Aug-21 12:33N 50°54' W 001°26'0 0.0
2016-Aug-21 11:33N 50°54' W 001°26'0 0.0
2016-Aug-21 10:33N 50°54' W 001°26'0 0.0
2016-Aug-21 09:31N 50°54' W 001°26'0 0.0
2016-Aug-21 08:31N 50°54' W 001°26'0 0.0
2016-Aug-21 07:31N 50°54' W 001°26'0 0.0
2016-Aug-21 06:25N 50°54' W 001°26'1 1.4
2016-Aug-21 05:34N 50°54' W 001°25'8 8.4
2016-Aug-21 04:33N 50°47' W 001°17'1515.0
2016-Aug-21 03:34N 50°40' W 000°56'1313.0
2016-Aug-21 02:33N 50°35' W 000°37'1716.7
2016-Aug-21 01:33N 50°32' W 000°11'1716.6
2016-Aug-21 00:32N 50°34' E 000°16'1615.6
2016-Aug-20 23:32N 50°38' E 000°39'3015.0
2016-Aug-20 21:32N 50°55' E 001°19'1616.0
2016-Aug-20 20:34N 51°06' E 001°36'1616.3
2016-Aug-20 19:33N 51°19' E 001°52'1211.6
2016-Aug-20 18:34N 51°21' E 002°10'1514.7
2016-Aug-20 17:34N 51°23' E 002°34'1413.5
2016-Aug-20 16:33N 51°23' E 002°55'1110.9
2016-Aug-20 15:34N 51°21' E 003°12'0 0.3
2016-Aug-20 14:33N 51°20' E 003°12'0 0.0
2016-Aug-20 13:33N 51°20' E 003°12'0 0.0
2016-Aug-20 12:33N 51°20' E 003°12'0 0.0
2016-Aug-20 11:33N 51°20' E 003°12'0 0.0
2016-Aug-20 10:33N 51°20' E 003°12'0 0.0
2016-Aug-20 09:33N 51°20' E 003°12'0 0.0
2016-Aug-20 08:33N 51°20' E 003°12'0 0.0
2016-Aug-20 07:33N 51°20' E 003°12'0 0.0
2016-Aug-20 06:33N 51°20' E 003°12'0 0.0
2016-Aug-20 05:33N 51°20' E 003°12'7 7.2
2016-Aug-20 04:34N 51°24' E 003°03'1514.8
2016-Aug-20 03:33N 51°22' E 002°40'1414.0
2016-Aug-20 02:33N 51°18' E 002°18'1615.7
2016-Aug-20 01:33N 51°09' E 001°57'1919.4
2016-Aug-20 00:33N 50°57' E 001°33'4317.2
2016-Aug-19 22:04N 50°29' E 000°42'1019.1
2016-Aug-19 21:32N 50°27' E 000°26'2020.6
2016-Aug-19 20:33N 50°22' W 000°05'2019.8
2016-Aug-19 19:33N 50°32' W 000°32'1918.7
2016-Aug-19 18:33N 50°41' W 000°57'1414.5
2016-Aug-19 17:33N 50°47' W 001°18'  
Track history (hours):
 
Tides and Currents Weather Stations Pressure Air Temp Water Temp Dewpoint Dewpoint Depression Visibility Wind Speed Wind Dir Waves Ship Positions

Oriana (Bermuda)

Last reported at 2016-Aug-29 17:21 UTC. Time now 2016-Aug-29 19:46 UTC.
Position N 58°35' W 005°10'.

Length 261 m; beam 32.2 m; draft 8.2 m.

Type: Ship. MMSI: 310529000.

Date/timePositionNaut miles runAvg speedWind from/ knotsBaromVisibWave heightAir tempDewpointWater temp
2016-Aug-29 17:21N 58°35' W 005°10'6 7.6
2016-Aug-29 16:32N 58°39' W 005°00'8 8.5
2016-Aug-29 15:33N 58°40' W 004°44'1110.3
2016-Aug-29 14:27N 58°37' W 004°24'9 9.7
2016-Aug-29 13:33N 58°40' W 004°08'10 9.9
2016-Aug-29 12:33N 58°44' W 003°50'1111.1
2016-Aug-29 11:33N 58°44' W 003°28'1211.8
2016-Aug-29 10:33N 58°43' W 003°06'1110.5
2016-Aug-29 09:33N 58°42' W 002°46'8 8.5
2016-Aug-29 08:33N 58°47' W 002°32'1110.5
2016-Aug-29 07:32N 58°56' W 002°23'1212.0
2016-Aug-29 06:33N 58°60' W 002°44'7 7.0
2016-Aug-29 05:31N 58°60' W 002°58'0 0.0
2016-Aug-29 04:31N 59°00' W 002°58'0 0.0
2016-Aug-29 03:31N 59°00' W 002°58'0 0.0
2016-Aug-29 02:31N 59°00' W 002°58'0 0.0
2016-Aug-29 01:31N 59°00' W 002°58'0 0.0
2016-Aug-29 00:31N 58°60' W 002°58'0 0.0
2016-Aug-28 23:31N 59°00' W 002°58'0 0.0
2016-Aug-28 22:31N 59°00' W 002°58'0 0.0
2016-Aug-28 21:31N 59°00' W 002°58'0 0.0
2016-Aug-28 20:31N 59°00' W 002°58'0 0.0
2016-Aug-28 19:31N 58°60' W 002°58'0 0.0
2016-Aug-28 18:31N 59°00' W 002°58'0 0.0
2016-Aug-28 17:31N 59°00' W 002°58'0 0.0
2016-Aug-28 16:31N 59°00' W 002°58'0 0.0
2016-Aug-28 15:31N 59°00' W 002°58'0 0.0
2016-Aug-28 14:31N 59°00' W 002°58'0 0.0
2016-Aug-28 13:31N 59°00' W 002°58'0 0.0
2016-Aug-28 12:31N 59°00' W 002°58'0 0.0
2016-Aug-28 11:31N 59°00' W 002°58'0 0.0
2016-Aug-28 10:31N 59°00' W 002°58'0 0.0
2016-Aug-28 09:31N 59°00' W 002°58'0 0.0
2016-Aug-28 08:31N 59°00' W 002°58'0 0.0
2016-Aug-28 07:31N 59°00' W 002°58'0 0.0
2016-Aug-28 06:33N 59°00' W 002°58'7 6.7
2016-Aug-28 05:33N 58°60' W 002°45'1211.7
2016-Aug-28 04:33N 58°48' W 002°41'1716.7
2016-Aug-28 03:32N 58°44' W 003°13'1717.1
2016-Aug-28 02:33N 58°44' W 003°45'1716.7
2016-Aug-28 01:33N 58°44' W 004°17'1312.8
2016-Aug-28 00:33N 58°44' W 004°42'1010.5
2016-Aug-27 23:33N 58°44' W 005°02'1010.4
2016-Aug-27 22:33N 58°44' W 005°22'115 5.9
2016-Aug-27 03:00N 57°00' W 006°54'6414.3 180 / 31017.110.8 14.911.814.0
2016-Aug-26 22:32N 55°57' W 007°12'2020.1
2016-Aug-26 21:33N 55°43' W 006°48'2121.3
2016-Aug-26 20:33N 55°29' W 006°20'2020.3
2016-Aug-26 19:33N 55°16' W 005°53'2120.6
2016-Aug-26 18:33N 54°58' W 005°36'1716.4
2016-Aug-26 17:32N 54°42' W 005°46'6 0.5
2016-Aug-26 06:22N 54°38' W 005°53'16 9.0
2016-Aug-26 04:34N 54°44' W 005°27'9 9.2
2016-Aug-26 03:33N 54°37' W 005°17'1425.5
2016-Aug-26 03:00N 54°24' W 005°06'510.9 240 / 131013.110.8 0.514.812.014.0
2016-Aug-26 02:33N 54°28' W 005°11'1010.1
2016-Aug-26 01:33N 54°18' W 005°11'1010.1
2016-Aug-26 00:33N 54°08' W 005°16'3210.7
2016-Aug-25 21:33N 53°39' W 005°42'1310.6
2016-Aug-25 20:19N 53°28' W 005°53'59 3.1
2016-Aug-25 01:09N 52°29' W 005°48'1118.4
2016-Aug-25 00:32N 52°18' W 005°54'1717.4
2016-Aug-24 23:33N 52°03' W 006°08'1818.0
2016-Aug-24 22:33N 51°58' W 006°36'1818.2
2016-Aug-24 21:33N 51°53' W 007°04'1817.9
2016-Aug-24 20:33N 51°49' W 007°32'1817.8
2016-Aug-24 19:33N 51°45' W 008°00'1111.2
2016-Aug-24 18:33N 51°50' W 008°16'2 2.4
2016-Aug-24 17:34N 51°50' W 008°20'0 0.0
2016-Aug-24 16:32N 51°50' W 008°20'0 0.0
2016-Aug-24 15:32N 51°50' W 008°20'0 0.0
2016-Aug-24 14:32N 51°50' W 008°20'0 0.0
2016-Aug-24 13:33N 51°50' W 008°20'0 0.0
2016-Aug-24 12:31N 51°50' W 008°20'0 0.0
2016-Aug-24 11:31N 51°50' W 008°20'0 0.0
2016-Aug-24 10:31N 51°50' W 008°20'0 0.0
2016-Aug-24 09:31N 51°50' W 008°20'0 0.0
2016-Aug-24 08:31N 51°50' W 008°20'0 0.0
2016-Aug-24 07:31N 51°50' W 008°20'0 0.0
2016-Aug-24 06:33N 51°50' W 008°20'11 5.6
2016-Aug-24 04:34N 51°39' W 008°14'1110.8
2016-Aug-24 03:33N 51°33' W 008°00'1010.5
2016-Aug-24 02:33N 51°31' W 007°44'7 6.9
2016-Aug-24 01:33N 51°27' W 007°36'1010.4
2016-Aug-24 00:33N 51°25' W 007°19'65 8.8
2016-Aug-23 17:08N 50°34' W 006°15'7 9.7
2016-Aug-23 16:25N 50°29' W 006°07'910.1
2016-Aug-23 15:32N 50°23' W 005°56'1222.3
2016-Aug-23 15:00N 50°12' W 005°48'3 7.5 350 / 71019.710.8 17.015.314.0
2016-Aug-23 14:33N 50°13' W 005°53'10 9.9
2016-Aug-23 13:32N 50°03' W 005°53'8 7.8
2016-Aug-23 12:33N 49°59' W 005°43'23 9.1
2016-Aug-23 10:04N 49°55' W 005°09'4 8.8
2016-Aug-23 09:33N 49°57' W 005°03'9 9.3
2016-Aug-23 08:33N 50°05' W 004°55'10 9.7
2016-Aug-23 07:33N 50°12' W 004°44'8 8.2
2016-Aug-23 06:33N 50°13' W 004°31'1110.6
2016-Aug-23 05:33N 50°04' W 004°22'1110.6
2016-Aug-23 04:33N 49°54' W 004°16'1010.3
2016-Aug-23 03:33N 49°45' W 004°09'1110.4
2016-Aug-23 02:32N 49°37' W 003°57'1010.5
2016-Aug-23 01:33N 49°33' W 003°43'9 8.6
2016-Aug-23 00:33N 49°28' W 003°54'1010.2
2016-Aug-22 23:33N 49°18' W 003°47'9 8.7
2016-Aug-22 22:33N 49°17' W 003°34'10 9.8
2016-Aug-22 21:33N 49°18' W 003°20'9 9.0
2016-Aug-22 20:33N 49°20' W 003°06'12 8.5
2016-Aug-22 19:08N 49°21' W 002°47'4 7.6
2016-Aug-22 18:33N 49°21' W 002°41'8 8.4
2016-Aug-22 17:33N 49°26' W 002°30'2 1.9
2016-Aug-22 16:33N 49°28' W 002°30'0 0.0
2016-Aug-22 15:17N 49°28' W 002°30'0 0.0
2016-Aug-22 14:29N 49°28' W 002°30'0 0.0
2016-Aug-22 13:26N 49°28' W 002°30'0 0.0
2016-Aug-22 08:22N 49°28' W 002°30'0 0.0
2016-Aug-22 07:29N 49°28' W 002°30'0 0.1
2016-Aug-22 06:33N 49°28' W 002°30'4 4.3
2016-Aug-22 05:33N 49°23' W 002°30'1111.2
2016-Aug-22 04:33N 49°25' W 002°47'1615.9
2016-Aug-22 03:32N 49°40' W 002°56'1615.9
2016-Aug-22 02:33N 49°55' W 003°02'1313.2
2016-Aug-22 01:34N 50°01' W 002°44'1717.2
2016-Aug-22 00:33N 50°07' W 002°18'1615.8
2016-Aug-21 23:33N 50°15' W 001°57'9 9.0
2016-Aug-21 22:33N 50°19' W 001°44'7 7.1
2016-Aug-21 21:33N 50°22' W 001°35'10 7.6
2016-Aug-21 20:11N 50°27' W 001°20'5 8.6
2016-Aug-21 19:33N 50°30' W 001°13'1010.0
2016-Aug-21 18:33N 50°35' W 000°59'10 9.7
2016-Aug-21 17:33N 50°44' W 001°04'1212.1
2016-Aug-21 16:33N 50°51' W 001°20'5 5.2
2016-Aug-21 15:33N 50°54' W 001°26'0 0.0
2016-Aug-21 14:33N 50°54' W 001°26'0 0.0
2016-Aug-21 13:33N 50°54' W 001°26'0 0.0
2016-Aug-21 12:33N 50°54' W 001°26'0 0.0
2016-Aug-21 11:33N 50°54' W 001°26'0 0.0
2016-Aug-21 10:33N 50°54' W 001°26'0 0.0
2016-Aug-21 09:31N 50°54' W 001°26'0 0.0
2016-Aug-21 08:31N 50°54' W 001°26'0 0.0
2016-Aug-21 07:31N 50°54' W 001°26'0 0.0
2016-Aug-21 06:25N 50°54' W 001°26'1 1.4
2016-Aug-21 05:34N 50°54' W 001°25'8 8.4
2016-Aug-21 04:33N 50°47' W 001°17'1515.0
2016-Aug-21 03:34N 50°40' W 000°56'1313.0
2016-Aug-21 02:33N 50°35' W 000°37'1716.7
2016-Aug-21 01:33N 50°32' W 000°11'1716.6
2016-Aug-21 00:32N 50°34' E 000°16'1615.6
2016-Aug-20 23:32N 50°38' E 000°39'3015.0
2016-Aug-20 21:32N 50°55' E 001°19'1616.0
2016-Aug-20 20:34N 51°06' E 001°36'1616.3
2016-Aug-20 19:33N 51°19' E 001°52'1211.6
2016-Aug-20 18:34N 51°21' E 002°10'1514.7
2016-Aug-20 17:34N 51°23' E 002°34'1413.5
2016-Aug-20 16:33N 51°23' E 002°55'1110.9
2016-Aug-20 15:34N 51°21' E 003°12'0 0.3
2016-Aug-20 14:33N 51°20' E 003°12'0 0.0
2016-Aug-20 13:33N 51°20' E 003°12'0 0.0
2016-Aug-20 12:33N 51°20' E 003°12'0 0.0
2016-Aug-20 11:33N 51°20' E 003°12'0 0.0
2016-Aug-20 10:33N 51°20' E 003°12'0 0.0
2016-Aug-20 09:33N 51°20' E 003°12'0 0.0
2016-Aug-20 08:33N 51°20' E 003°12'0 0.0
2016-Aug-20 07:33N 51°20' E 003°12'0 0.0
2016-Aug-20 06:33N 51°20' E 003°12'0 0.0
2016-Aug-20 05:33N 51°20' E 003°12'7 7.2
2016-Aug-20 04:34N 51°24' E 003°03'1514.8
2016-Aug-20 03:33N 51°22' E 002°40'1414.0
2016-Aug-20 02:33N 51°18' E 002°18'1615.7
2016-Aug-20 01:33N 51°09' E 001°57'1919.4
2016-Aug-20 00:33N 50°57' E 001°33'4317.2
2016-Aug-19 22:04N 50°29' E 000°42'1019.1
2016-Aug-19 21:32N 50°27' E 000°26'2020.6
2016-Aug-19 20:33N 50°22' W 000°05'2019.8
2016-Aug-19 19:33N 50°32' W 000°32'1918.7
2016-Aug-19 18:33N 50°41' W 000°57'1414.5
2016-Aug-19 17:33N 50°47' W 001°18'  

Dump ship's entire track history